Time;durP1;ratioP1;P1;durP2;ratioP2;P2;SDS_P1;SDS_P2;PMS_P1;PMS_P2;Temp;Humidity;BMP_temperature;BMP_pressure;BME280_temperature;BME280_humidity;BME280_pressure;Samples;Min_cycle;Max_cycle;Signal;HPM_P1;HPM_P2
2023/03/20 00:00:18;;;;;;;2.63;2.47;;;11.90;99.90;;;;;;5006942;28;20676;-72
2023/03/20 00:02:45;;;;;;;3.33;3.03;;;11.90;99.90;;;;;;5007234;28;20200;-72
2023/03/20 00:05:18;;;;;;;3.50;2.57;;;11.80;99.90;;;;;;5007011;28;20213;-72
2023/03/20 00:07:46;;;;;;;3.07;2.87;;;11.70;99.90;;;;;;5007367;28;20572;-75
2023/03/20 00:10:15;;;;;;;2.50;2.30;;;11.70;99.90;;;;;;5006889;28;20248;-74
2023/03/20 00:12:43;;;;;;;2.63;2.43;;;11.70;99.90;;;;;;5006985;28;20308;-75
2023/03/20 00:15:24;;;;;;;5.87;4.27;;;11.70;99.90;;;;;;5007621;28;20213;-74
2023/03/20 00:17:51;;;;;;;5.20;4.60;;;11.60;99.90;;;;;;5007182;28;20222;-74
2023/03/20 00:20:19;;;;;;;4.07;3.77;;;11.50;99.90;;;;;;5007020;28;20240;-74
2023/03/20 00:22:46;;;;;;;4.27;3.87;;;11.50;99.90;;;;;;5006291;28;20295;-74
2023/03/20 00:25:15;;;;;;;3.20;3.00;;;11.50;99.90;;;;;;5007079;28;20245;-74
2023/03/20 00:27:43;;;;;;;2.87;2.67;;;11.50;99.90;;;;;;5006724;28;20308;-72
2023/03/20 00:30:20;;;;;;;2.13;1.93;;;11.40;99.90;;;;;;5007062;28;20213;-73
2023/03/20 00:32:47;;;;;;;2.57;2.33;;;11.40;99.90;;;;;;5006672;28;20205;-73
2023/03/20 00:35:23;;;;;;;3.40;2.70;;;11.40;99.90;;;;;;5006613;28;20937;-73
2023/03/20 00:37:50;;;;;;;3.87;2.63;;;11.30;99.90;;;;;;5005740;28;20227;-74
2023/03/20 00:40:19;;;;;;;3.23;2.93;;;11.30;99.90;;;;;;5006176;28;20771;-73
2023/03/20 00:42:48;;;;;;;2.97;2.77;;;11.30;99.90;;;;;;5005396;28;20214;-74
2023/03/20 00:45:18;;;;;;;3.37;2.60;;;11.30;99.90;;;;;;5006370;28;20806;-73
2023/03/20 00:47:46;;;;;;;3.10;2.80;;;11.20;99.90;;;;;;5006868;28;20301;-73
2023/03/20 00:50:19;;;;;;;2.30;2.20;;;11.20;99.90;;;;;;5005896;28;20201;-73
2023/03/20 00:52:46;;;;;;;2.50;2.30;;;11.20;99.90;;;;;;5006408;28;20707;-73
2023/03/20 00:55:13;;;;;;;2.97;2.13;;;11.20;99.90;;;;;;5006215;28;20205;-73
2023/03/20 00:57:44;;;;;;;2.43;2.23;;;11.20;99.90;;;;;;5006569;28;20229;-73
2023/03/20 01:00:22;;;;;;;5.27;2.50;;;11.10;99.90;;;;;;5006347;28;20205;-72
2023/03/20 01:02:49;;;;;;;2.47;2.27;;;11.10;99.90;;;;;;5006146;28;20371;-72
2023/03/20 01:05:16;;;;;;;2.50;2.30;;;11.10;99.90;;;;;;5006400;28;20291;-72
2023/03/20 01:07:44;;;;;;;3.33;2.63;;;11.10;99.90;;;;;;5005678;28;20209;-72
2023/03/20 01:10:12;;;;;;;2.30;2.13;;;11.10;99.90;;;;;;5005951;28;20237;-73
2023/03/20 01:12:42;;;;;;;2.50;2.30;;;11.00;99.90;;;;;;5006258;28;20633;-72
2023/03/20 01:15:19;;;;;;;2.60;2.40;;;10.90;99.90;;;;;;5006096;28;20206;-72
2023/03/20 01:17:46;;;;;;;3.03;2.30;;;10.90;99.90;;;;;;5006043;28;20287;-72
2023/03/20 01:20:17;;;;;;;2.57;2.37;;;11.00;99.90;;;;;;5006079;28;20217;-72
2023/03/20 01:22:44;;;;;;;2.70;2.50;;;11.00;99.90;;;;;;5006115;28;20210;-71
2023/03/20 01:25:11;;;;;;;3.03;2.50;;;11.00;99.90;;;;;;5005721;28;20210;-71
2023/03/20 01:27:38;;;;;;;2.03;1.93;;;10.90;99.90;;;;;;5005784;28;20237;-71
2023/03/20 01:30:17;;;;;;;2.33;2.20;;;11.00;99.90;;;;;;5005586;28;20691;-73
2023/03/20 01:32:45;;;;;;;2.00;1.90;;;10.90;99.90;;;;;;5005565;28;20229;-73
2023/03/20 01:35:13;;;;;;;3.30;2.33;;;11.00;99.90;;;;;;5005424;28;20212;-73
2023/03/20 01:37:41;;;;;;;2.57;2.27;;;11.00;99.90;;;;;;5005408;28;20707;-74
2023/03/20 01:40:16;;;;;;;2.77;2.50;;;10.90;99.90;;;;;;5005631;28;20232;-73
2023/03/20 01:42:43;;;;;;;3.87;2.53;;;10.90;99.90;;;;;;5005000;28;20268;-72
2023/03/20 01:45:17;;;;;;;2.40;2.30;;;10.90;99.90;;;;;;5005586;28;20249;-72
2023/03/20 01:47:44;;;;;;;4.10;2.70;;;10.90;99.90;;;;;;5005507;28;20304;-72
2023/03/20 01:50:35;;;;;;;3.23;2.90;;;10.80;99.90;;;;;;5005363;28;20256;-72
2023/03/20 01:53:09;;;;;;;3.03;2.83;;;10.80;99.90;;;;;;5005870;28;20206;-72
2023/03/20 01:55:38;;;;;;;2.90;2.60;;;10.80;99.90;;;;;;5005829;28;20973;-72
2023/03/20 01:58:10;;;;;;;2.57;2.47;;;10.80;99.90;;;;;;5005889;28;20233;-71
2023/03/20 02:00:39;;;;;;;2.53;2.30;;;10.80;99.90;;;;;;5005705;28;20281;-71
2023/03/20 02:03:08;;;;;;;2.47;2.20;;;10.80;99.90;;;;;;5005458;28;20202;-71
2023/03/20 02:05:37;;;;;;;2.27;2.17;;;10.80;99.90;;;;;;5005361;28;20304;-72
2023/03/20 02:08:16;;;;;;;2.47;2.33;;;10.70;99.90;;;;;;5005255;28;20307;-71
2023/03/20 02:10:45;;;;;;;2.70;2.17;;;10.70;99.90;;;;;;5005162;28;21008;-74
2023/03/20 02:13:13;;;;;;;2.80;2.40;;;10.70;99.90;;;;;;5005274;28;20297;-73
2023/03/20 02:15:57;;;;;;;3.27;2.70;;;10.70;99.90;;;;;;5004939;28;20293;-72
2023/03/20 02:18:24;;;;;;;2.90;2.60;;;10.80;99.90;;;;;;5005371;28;20654;-72
2023/03/20 02:21:25;;;;;;;4.17;2.97;;;10.70;99.90;;;;;;5005245;28;20316;-72
2023/03/20 02:24:37;;;;;;;4.03;2.60;;;10.80;99.90;;;;;;5005396;28;20216;-72
2023/03/20 02:27:18;;;;;;;2.70;2.50;;;10.80;99.90;;;;;;5005521;28;20295;-73
2023/03/20 02:30:11;;;;;;;2.63;2.43;;;10.80;99.90;;;;;;5005885;28;20981;-73
2023/03/20 02:33:16;;;;;;;3.20;2.57;;;10.80;99.90;;;;;;5005528;28;20236;-73
2023/03/20 02:36:14;;;;;;;2.70;2.47;;;10.70;99.90;;;;;;5005585;28;20569;-73
2023/03/20 02:38:58;;;;;;;2.67;2.47;;;10.70;99.90;;;;;;5004924;28;20867;-73
2023/03/20 02:41:30;;;;;;;2.87;2.60;;;10.70;99.90;;;;;;5003834;28;20208;-73
2023/03/20 02:44:03;;;;;;;2.70;2.50;;;10.80;99.90;;;;;;5005039;28;20288;-73
2023/03/20 02:46:39;;;;;;;2.70;2.50;;;10.70;99.90;;;;;;5005140;28;20301;-73
2023/03/20 02:49:16;;;;;;;2.70;2.50;;;10.70;99.90;;;;;;4985546;28;20290;-73
2023/03/20 02:51:52;;;;;;;2.77;2.63;;;10.70;99.90;;;;;;4997090;28;20320;-73
2023/03/20 02:54:28;;;;;;;2.50;2.40;;;10.70;99.90;;;;;;5005017;28;20619;-73
2023/03/20 02:57:03;;;;;;;4.13;2.93;;;10.70;99.90;;;;;;5005026;28;20930;-73
2023/03/20 02:59:36;;;;;;;2.80;2.60;;;10.70;99.90;;;;;;5010639;28;20216;-73
2023/03/20 03:02:07;;;;;;;2.67;2.53;;;10.70;99.90;;;;;;5008928;28;20563;-72
2023/03/20 03:04:38;;;;;;;4.43;2.60;;;10.70;99.90;;;;;;5008763;28;20206;-72
2023/03/20 03:07:08;;;;;;;2.90;2.70;;;10.70;99.90;;;;;;5008388;28;20739;-73
2023/03/20 03:09:41;;;;;;;4.77;2.67;;;10.70;99.90;;;;;;5007948;28;20344;-72
2023/03/20 03:12:13;;;;;;;3.30;2.97;;;10.70;99.90;;;;;;4997126;28;20724;-73
2023/03/20 03:14:43;;;;;;;3.37;2.83;;;10.70;99.90;;;;;;4992366;28;20198;-73
2023/03/20 03:17:12;;;;;;;2.43;2.33;;;10.70;99.90;;;;;;5008484;28;20774;-73
2023/03/20 03:19:42;;;;;;;2.93;2.70;;;10.70;99.90;;;;;;5007699;28;20233;-72
2023/03/20 03:22:11;;;;;;;2.80;2.60;;;10.60;99.90;;;;;;5007648;28;20309;-72
2023/03/20 03:24:44;;;;;;;3.00;2.80;;;10.60;99.90;;;;;;5007279;28;20267;-74
2023/03/20 03:27:18;;;;;;;3.63;3.30;;;10.60;99.90;;;;;;5007388;28;20202;-73
2023/03/20 03:29:51;;;;;;;3.10;2.87;;;10.60;99.90;;;;;;5007400;28;20200;-73
2023/03/20 03:32:31;;;;;;;3.97;3.07;;;10.60;99.90;;;;;;5004756;28;20229;-73
2023/03/20 03:34:59;;;;;;;3.13;2.73;;;10.60;99.90;;;;;;5002763;28;20686;-73
2023/03/20 03:37:40;;;;;;;3.57;3.00;;;10.50;99.90;;;;;;5006301;28;20229;-73
2023/03/20 03:40:18;;;;;;;2.70;2.50;;;10.50;99.90;;;;;;5005879;28;20221;-73
2023/03/20 03:42:52;;;;;;;3.30;3.00;;;10.50;99.90;;;;;;4989850;28;20325;-73
2023/03/20 03:45:24;;;;;;;3.17;2.97;;;10.50;99.90;;;;;;4986901;28;20284;-73
2023/03/20 03:47:54;;;;;;;3.27;2.80;;;10.50;99.90;;;;;;4986712;28;20562;-73
2023/03/20 03:50:25;;;;;;;3.00;2.80;;;10.50;99.90;;;;;;4987832;28;20302;-73
2023/03/20 03:52:56;;;;;;;3.33;3.10;;;10.40;99.90;;;;;;5006524;28;20260;-73
2023/03/20 03:55:26;;;;;;;3.40;3.03;;;10.40;99.90;;;;;;5006977;28;20269;-73
2023/03/20 03:57:57;;;;;;;3.27;3.07;;;10.40;99.90;;;;;;5005873;28;20684;-73
2023/03/20 04:00:27;;;;;;;4.07;3.60;;;10.50;99.90;;;;;;5005224;28;20726;-73
2023/03/20 04:02:56;;;;;;;4.13;3.83;;;10.50;99.90;;;;;;5005992;28;20305;-74
2023/03/20 04:05:28;;;;;;;4.07;3.60;;;10.50;99.90;;;;;;5007035;28;20657;-74
2023/03/20 04:07:56;;;;;;;3.87;3.57;;;10.50;99.90;;;;;;5006682;28;20237;-74
2023/03/20 04:10:25;;;;;;;3.70;3.50;;;10.50;99.90;;;;;;5006317;28;20320;-74
2023/03/20 04:12:52;;;;;;;3.50;3.23;;;10.50;99.90;;;;;;5006345;28;20442;-74
2023/03/20 04:15:20;;;;;;;3.63;3.30;;;10.50;99.90;;;;;;5006434;28;20209;-74
2023/03/20 04:17:47;;;;;;;4.63;3.50;;;10.50;99.90;;;;;;5006400;28;20214;-74
2023/03/20 04:20:15;;;;;;;3.70;3.40;;;10.50;99.90;;;;;;5006386;28;20233;-74
2023/03/20 04:22:42;;;;;;;3.73;3.43;;;10.50;99.90;;;;;;5007296;28;20219;-74
2023/03/20 04:25:15;;;;;;;4.63;3.90;;;10.40;99.90;;;;;;5007454;28;20217;-74
2023/03/20 04:27:43;;;;;;;4.10;3.80;;;10.40;99.90;;;;;;5007335;28;20720;-74
2023/03/20 04:30:11;;;;;;;5.03;4.53;;;10.40;99.90;;;;;;5007210;28;20216;-74
2023/03/20 04:32:38;;;;;;;4.87;4.43;;;10.50;99.90;;;;;;5007125;28;20292;-74
2023/03/20 04:35:06;;;;;;;4.90;4.40;;;10.50;99.90;;;;;;5006866;28;20214;-74
2023/03/20 04:37:33;;;;;;;5.00;4.13;;;10.50;99.90;;;;;;5007207;28;20213;-74
2023/03/20 04:40:00;;;;;;;4.83;4.53;;;10.50;99.90;;;;;;5006649;28;20291;-74
2023/03/20 04:42:27;;;;;;;4.20;3.83;;;10.50;99.90;;;;;;5007064;28;20901;-74
2023/03/20 04:44:55;;;;;;;4.43;4.07;;;10.50;99.90;;;;;;5007007;28;20727;-74
2023/03/20 04:47:22;;;;;;;4.27;3.90;;;10.50;99.90;;;;;;5006623;28;20304;-73
2023/03/20 04:49:49;;;;;;;5.13;4.67;;;10.50;99.90;;;;;;5006254;28;20241;-74
2023/03/20 04:52:16;;;;;;;5.13;4.17;;;10.50;99.90;;;;;;5006451;28;20216;-74
2023/03/20 04:54:43;;;;;;;4.43;4.13;;;10.50;99.90;;;;;;5006137;28;20680;-74
2023/03/20 04:57:10;;;;;;;4.40;4.00;;;10.50;99.90;;;;;;5006244;28;20583;-73
2023/03/20 04:59:36;;;;;;;4.90;4.50;;;10.50;99.90;;;;;;5006361;28;20631;-73
2023/03/20 05:02:05;;;;;;;4.30;3.93;;;10.50;99.90;;;;;;5006532;28;20304;-74
2023/03/20 05:04:32;;;;;;;4.87;4.40;;;10.50;99.90;;;;;;5006463;28;20279;-74
2023/03/20 05:06:59;;;;;;;5.20;4.80;;;10.50;99.90;;;;;;5006196;28;20255;-74
2023/03/20 05:09:26;;;;;;;4.33;4.03;;;10.50;99.90;;;;;;5005844;28;20869;-74
2023/03/20 05:11:53;;;;;;;5.47;4.47;;;10.50;99.90;;;;;;5006000;28;20300;-74
2023/03/20 05:14:20;;;;;;;5.20;4.80;;;10.50;99.90;;;;;;5006047;28;20212;-74
2023/03/20 05:16:47;;;;;;;4.40;4.10;;;10.40;99.90;;;;;;5006086;28;20213;-74
2023/03/20 05:19:15;;;;;;;5.30;4.90;;;10.40;99.90;;;;;;5005876;28;20281;-74
2023/03/20 05:21:42;;;;;;;5.10;4.73;;;10.40;99.90;;;;;;5005922;28;20667;-74
2023/03/20 05:24:08;;;;;;;5.67;5.17;;;10.40;99.90;;;;;;5005584;28;20634;-74
2023/03/20 05:26:35;;;;;;;4.77;4.37;;;10.40;99.90;;;;;;5006061;28;20645;-74
2023/03/20 05:29:02;;;;;;;6.60;4.50;;;10.40;99.90;;;;;;5006146;28;20305;-74
2023/03/20 05:31:29;;;;;;;5.27;4.80;;;10.40;99.90;;;;;;5006186;28;20218;-74
2023/03/20 05:33:56;;;;;;;5.80;5.30;;;10.40;99.90;;;;;;5005791;28;20300;-74
2023/03/20 05:36:24;;;;;;;6.80;6.20;;;10.40;99.90;;;;;;5005902;28;20620;-74
2023/03/20 05:38:51;;;;;;;5.80;5.40;;;10.40;99.90;;;;;;5005567;28;20757;-74
2023/03/20 05:41:18;;;;;;;6.23;5.63;;;10.40;99.90;;;;;;5005366;28;20201;-73
2023/03/20 05:43:45;;;;;;;6.40;5.90;;;10.40;99.90;;;;;;5005469;28;20312;-74
2023/03/20 05:46:12;;;;;;;6.70;6.10;;;10.40;99.90;;;;;;5005622;28;20209;-74
2023/03/20 05:48:39;;;;;;;7.60;6.77;;;10.40;99.90;;;;;;5005300;28;20215;-74
2023/03/20 05:51:06;;;;;;;7.60;6.90;;;10.40;99.90;;;;;;5005590;28;20249;-74
2023/03/20 05:53:34;;;;;;;7.57;6.83;;;10.40;99.90;;;;;;5005769;28;20259;-74
2023/03/20 05:56:01;;;;;;;8.07;7.33;;;10.50;99.90;;;;;;5005855;28;20213;-73
2023/03/20 05:58:28;;;;;;;9.10;8.20;;;10.50;99.90;;;;;;5005801;28;20210;-74
2023/03/20 06:00:57;;;;;;;8.87;8.07;;;10.50;99.90;;;;;;5004405;28;20236;-74
2023/03/20 06:03:24;;;;;;;9.93;8.83;;;10.40;99.90;;;;;;5005350;28;20216;-74
2023/03/20 06:05:51;;;;;;;11.20;10.03;;;10.30;99.90;;;;;;5005163;28;20305;-74
2023/03/20 06:08:17;;;;;;;11.27;9.80;;;10.30;99.90;;;;;;5005473;28;20239;-74
2023/03/20 06:10:46;;;;;;;12.80;10.60;;;10.20;99.90;;;;;;5005008;28;20360;-74
2023/03/20 06:13:13;;;;;;;12.27;11.13;;;10.10;99.90;;;;;;5005547;28;20215;-74
2023/03/20 06:15:40;;;;;;;14.13;12.73;;;10.10;99.90;;;;;;5005159;28;20626;-76
2023/03/20 06:18:07;;;;;;;14.90;13.30;;;10.00;99.90;;;;;;5005313;28;20321;-74
2023/03/20 06:20:33;;;;;;;18.87;15.37;;;10.00;99.90;;;;;;5004765;28;20994;-74
2023/03/20 06:23:00;;;;;;;18.30;15.97;;;9.80;99.90;;;;;;5005161;28;20252;-74
2023/03/20 06:25:27;;;;;;;22.17;16.47;;;9.80;99.90;;;;;;5005083;28;20320;-74
2023/03/20 06:27:56;;;;;;;21.43;18.20;;;9.80;99.90;;;;;;5005081;28;20247;-74
2023/03/20 06:30:23;;;;;;;21.23;18.27;;;9.80;99.90;;;;;;5004989;28;20209;-74
2023/03/20 06:32:50;;;;;;;20.30;17.20;;;9.70;99.90;;;;;;5004949;28;20301;-74
2023/03/20 06:35:17;;;;;;;21.47;18.33;;;9.80;99.90;;;;;;5005505;28;20295;-74
2023/03/20 06:37:44;;;;;;;24.27;18.73;;;9.70;99.90;;;;;;5008719;28;20209;-75
2023/03/20 06:40:11;;;;;;;22.83;17.87;;;9.70;99.90;;;;;;5008978;28;20249;-73
2023/03/20 06:42:38;;;;;;;24.97;18.57;;;9.60;99.90;;;;;;5022611;28;20213;-74
2023/03/20 06:45:08;;;;;;;25.43;18.20;;;9.60;99.90;;;;;;5025991;28;20235;-74
2023/03/20 06:47:35;;;;;;;27.17;19.53;;;9.60;99.90;;;;;;5009097;28;20214;-74
2023/03/20 06:50:02;;;;;;;24.87;18.77;;;9.60;99.90;;;;;;5008413;28;20308;-74
2023/03/20 06:52:28;;;;;;;23.20;18.27;;;9.70;99.90;;;;;;5008639;28;20297;-74
2023/03/20 06:54:56;;;;;;;26.33;18.73;;;9.70;99.90;;;;;;5008825;28;20233;-74
2023/03/20 06:57:24;;;;;;;25.57;18.73;;;9.60;99.90;;;;;;5008857;28;20279;-74
2023/03/20 06:59:50;;;;;;;25.67;18.60;;;9.70;99.90;;;;;;5008643;28;20232;-74
2023/03/20 07:02:19;;;;;;;28.10;19.20;;;9.60;99.90;;;;;;5008772;28;20205;-74
2023/03/20 07:04:46;;;;;;;29.27;19.70;;;9.70;99.90;;;;;;5008717;28;20301;-74
2023/03/20 07:07:12;;;;;;;31.90;20.97;;;9.60;99.90;;;;;;5008564;28;20321;-74
2023/03/20 07:09:39;;;;;;;33.73;20.93;;;9.60;99.90;;;;;;5008195;28;20273;-74
2023/03/20 07:12:13;;;;;;;34.67;21.60;;;9.60;99.90;;;;;;5008365;28;20296;-74
2023/03/20 07:14:40;;;;;;;29.93;20.73;;;9.60;99.90;;;;;;5008327;28;20238;-74
2023/03/20 07:17:08;;;;;;;30.40;20.90;;;9.60;99.90;;;;;;5008380;28;20236;-74
2023/03/20 07:19:37;;;;;;;29.13;20.17;;;9.50;99.90;;;;;;5008044;28;20264;-74
2023/03/20 07:22:06;;;;;;;32.27;21.87;;;9.40;99.90;;;;;;5008017;28;20249;-74
2023/03/20 07:24:33;;;;;;;31.90;21.30;;;9.50;99.90;;;;;;5008579;28;20300;-74
2023/03/20 07:27:00;;;;;;;31.83;20.90;;;9.50;99.90;;;;;;5008481;28;20256;-74
2023/03/20 07:29:27;;;;;;;34.27;21.40;;;9.40;99.90;;;;;;5008301;28;20296;-73
2023/03/20 07:31:54;;;;;;;31.93;20.43;;;9.50;99.90;;;;;;5007992;28;20217;-73
2023/03/20 07:34:22;;;;;;;31.13;20.07;;;9.50;99.90;;;;;;5007927;28;20214;-74
2023/03/20 07:36:50;;;;;;;29.63;20.30;;;9.50;99.90;;;;;;5007837;28;20214;-74
2023/03/20 07:39:17;;;;;;;29.67;20.63;;;9.60;99.90;;;;;;5008294;28;20885;-74
2023/03/20 07:41:44;;;;;;;27.90;19.07;;;9.60;99.90;;;;;;5008038;28;20240;-73
2023/03/20 07:44:13;;;;;;;28.70;19.20;;;9.60;99.90;;;;;;5008018;28;20324;-74
2023/03/20 07:46:40;;;;;;;26.50;18.33;;;9.70;99.90;;;;;;5007195;28;20321;-73
2023/03/20 07:49:07;;;;;;;26.70;18.17;;;9.70;99.90;;;;;;5007737;28;20221;-73
2023/03/20 07:51:34;;;;;;;26.07;18.30;;;9.80;99.90;;;;;;5007729;28;20217;-73
2023/03/20 07:54:02;;;;;;;28.37;18.07;;;9.80;99.90;;;;;;5007661;28;20205;-73
2023/03/20 07:56:29;;;;;;;23.90;17.07;;;9.90;99.90;;;;;;5007589;28;20642;-74
2023/03/20 07:58:56;;;;;;;30.40;18.53;;;9.90;99.90;;;;;;5007601;28;20209;-74
2023/03/20 08:01:23;;;;;;;27.50;18.47;;;9.90;99.90;;;;;;5007672;28;21213;-73
2023/03/20 08:03:50;;;;;;;26.37;18.00;;;10.00;99.90;;;;;;5007408;28;20208;-74
2023/03/20 08:06:17;;;;;;;24.10;17.30;;;9.90;99.90;;;;;;5007789;28;20228;-73
2023/03/20 08:08:44;;;;;;;25.87;17.30;;;9.90;99.90;;;;;;5007741;28;21074;-74
2023/03/20 08:11:13;;;;;;;26.47;18.33;;;9.90;99.90;;;;;;5007622;28;20751;-73
2023/03/20 08:13:40;;;;;;;24.57;17.07;;;9.90;99.90;;;;;;5007568;28;20981;-73
2023/03/20 08:16:07;;;;;;;26.07;16.97;;;9.90;99.90;;;;;;5007715;28;20575;-73
2023/03/20 08:18:35;;;;;;;24.77;16.87;;;9.90;99.90;;;;;;5007072;28;20256;-73
2023/03/20 08:21:02;;;;;;;25.43;17.10;;;10.00;99.90;;;;;;5007272;28;20336;-74
2023/03/20 08:23:28;;;;;;;30.37;17.30;;;10.00;99.90;;;;;;5006917;28;20241;-73
2023/03/20 08:25:55;;;;;;;25.23;16.90;;;10.00;99.90;;;;;;5006804;28;20439;-74
2023/03/20 08:28:24;;;;;;;23.50;16.47;;;10.00;99.90;;;;;;5006793;28;20235;-74
2023/03/20 08:30:51;;;;;;;21.83;15.93;;;10.00;99.90;;;;;;5006910;28;20320;-73
2023/03/20 08:33:18;;;;;;;22.90;15.87;;;10.10;99.90;;;;;;5006829;28;20410;-73
2023/03/20 08:35:55;;;;;;;24.33;16.63;;;10.20;99.90;;;;;;5006383;28;20210;-74
2023/03/20 08:38:22;;;;;;;24.10;16.30;;;10.40;99.90;;;;;;5006658;28;20220;-74
2023/03/20 08:40:49;;;;;;;23.57;14.97;;;10.50;99.90;;;;;;5006726;28;20774;-74
2023/03/20 08:43:16;;;;;;;22.53;14.80;;;10.50;99.90;;;;;;5006951;28;21035;-73
2023/03/20 08:45:45;;;;;;;22.67;14.27;;;10.50;99.90;;;;;;5007092;28;20214;-73
2023/03/20 08:48:14;;;;;;;20.43;15.37;;;10.50;99.90;;;;;;5007193;28;20664;-73
2023/03/20 08:50:41;;;;;;;18.30;14.33;;;10.60;99.90;;;;;;5007317;28;20240;-73
2023/03/20 08:53:08;;;;;;;18.70;13.80;;;10.60;99.90;;;;;;5007082;28;20228;-73
2023/03/20 08:55:35;;;;;;;19.60;13.33;;;10.60;99.90;;;;;;5007156;28;20216;-75
2023/03/20 08:58:02;;;;;;;20.57;13.87;;;10.70;99.90;;;;;;5006052;28;20297;-74
2023/03/20 09:00:29;;;;;;;18.00;13.60;;;10.80;99.90;;;;;;5006754;28;20229;-74
2023/03/20 09:02:57;;;;;;;24.40;18.97;;;10.90;99.90;;;;;;5006500;28;20209;-74
2023/03/20 09:05:24;;;;;;;20.10;13.70;;;10.90;99.90;;;;;;5006114;28;20214;-74
2023/03/20 09:07:51;;;;;;;17.60;13.03;;;11.00;99.90;;;;;;5006063;28;20252;-74
2023/03/20 09:10:18;;;;;;;17.43;12.60;;;11.00;99.90;;;;;;5005883;28;20280;-74
2023/03/20 09:12:45;;;;;;;16.87;13.13;;;11.00;99.90;;;;;;5005987;28;20700;-74
2023/03/20 09:15:12;;;;;;;14.27;11.93;;;11.00;99.90;;;;;;5005962;28;20292;-74
2023/03/20 09:17:39;;;;;;;18.47;12.40;;;11.00;99.90;;;;;;5005940;28;20301;-74
2023/03/20 09:20:09;;;;;;;17.27;12.33;;;10.90;99.90;;;;;;5005826;28;20241;-74
2023/03/20 09:22:35;;;;;;;14.07;11.10;;;11.00;99.90;;;;;;5005591;28;20747;-74
2023/03/20 09:25:02;;;;;;;16.77;12.40;;;11.00;99.90;;;;;;5006111;28;20292;-74
2023/03/20 09:27:29;;;;;;;17.17;12.17;;;11.10;99.90;;;;;;5006243;28;20244;-74
2023/03/20 09:29:56;;;;;;;16.53;12.20;;;11.10;99.90;;;;;;5006223;28;20212;-74
2023/03/20 09:32:23;;;;;;;15.30;11.70;;;11.20;99.90;;;;;;5006658;28;20239;-74
2023/03/20 09:34:50;;;;;;;16.70;12.43;;;11.30;99.90;;;;;;5005690;28;20291;-74
2023/03/20 09:37:18;;;;;;;13.53;11.30;;;11.30;99.90;;;;;;5005835;28;20747;-74
2023/03/20 09:39:45;;;;;;;16.20;11.10;;;11.30;99.90;;;;;;5005907;28;20207;-74
2023/03/20 09:42:23;;;;;;;14.43;11.13;;;11.30;99.90;;;;;;5007559;28;20264;-74
2023/03/20 09:44:57;;;;;;;14.10;10.47;;;11.30;99.90;;;;;;5005827;28;20677;-74
2023/03/20 09:47:31;;;;;;;9.60;8.47;;;11.40;99.90;;;;;;5005980;28;20301;-74
2023/03/20 09:50:12;;;;;;;10.17;8.53;;;11.50;99.90;;;;;;5005187;28;20201;-74
2023/03/20 09:52:49;;;;;;;11.07;7.53;;;11.40;99.90;;;;;;5005377;28;20672;-74
2023/03/20 09:55:20;;;;;;;8.33;7.40;;;11.50;99.90;;;;;;5005436;28;20695;-74
2023/03/20 09:57:51;;;;;;;9.63;7.30;;;11.50;99.90;;;;;;5005430;28;20193;-74
2023/03/20 10:00:21;;;;;;;10.83;7.53;;;11.50;99.90;;;;;;5005154;28;20206;-74
2023/03/20 10:02:53;;;;;;;10.10;7.47;;;11.50;99.90;;;;;;5005469;28;20676;-74
2023/03/20 10:05:24;;;;;;;8.87;7.10;;;11.50;99.90;;;;;;5005280;28;20201;-74
2023/03/20 10:07:55;;;;;;;10.87;7.97;;;11.50;99.90;;;;;;5005344;28;20225;-74
2023/03/20 10:10:29;;;;;;;10.47;7.90;;;11.50;99.90;;;;;;5005305;28;20284;-74
2023/03/20 10:13:05;;;;;;;9.27;7.30;;;11.50;99.90;;;;;;5005585;28;20300;-74
2023/03/20 10:15:46;;;;;;;10.23;6.97;;;11.40;99.90;;;;;;5005661;28;20228;-74
2023/03/20 10:18:22;;;;;;;9.67;7.30;;;11.50;99.90;;;;;;5005160;28;20626;-74
2023/03/20 10:20:57;;;;;;;9.00;7.17;;;11.50;99.90;;;;;;5005125;28;20588;-74
2023/03/20 10:23:34;;;;;;;10.07;7.50;;;11.50;99.90;;;;;;5005293;28;20200;-74
2023/03/20 10:26:06;;;;;;;6.23;5.63;;;11.50;99.90;;;;;;5005151;28;20297;-74
2023/03/20 10:28:40;;;;;;;9.07;6.53;;;11.50;99.90;;;;;;5005023;28;20200;-74
2023/03/20 10:31:23;;;;;;;7.10;6.33;;;11.40;99.90;;;;;;5005106;28;20753;-74
2023/03/20 10:34:00;;;;;;;8.83;6.10;;;11.50;99.90;;;;;;5005017;28;20288;-74
2023/03/20 10:36:42;;;;;;;6.67;5.97;;;11.40;99.90;;;;;;5005332;28;20204;-74
2023/03/20 10:39:20;;;;;;;8.30;6.37;;;11.40;99.90;;;;;;5005147;28;20727;-74
2023/03/20 10:41:54;;;;;;;11.53;6.23;;;11.40;99.90;;;;;;5005131;28;20244;-74
2023/03/20 10:44:29;;;;;;;7.27;6.03;;;11.30;99.90;;;;;;5005652;28;20672;-74
2023/03/20 10:47:01;;;;;;;8.23;6.50;;;11.40;99.90;;;;;;5004767;28;20723;-74
2023/03/20 10:49:36;;;;;;;6.77;5.70;;;11.30;99.90;;;;;;5005414;28;20221;-74
2023/03/20 10:52:07;;;;;;;7.60;6.50;;;11.30;99.90;;;;;;4985631;28;20317;-74
2023/03/20 10:54:40;;;;;;;7.50;6.67;;;11.30;99.90;;;;;;4985649;28;20194;-74
2023/03/20 10:57:12;;;;;;;7.93;6.50;;;11.40;99.90;;;;;;4985762;28;20280;-74
2023/03/20 10:59:41;;;;;;;7.07;6.33;;;11.40;99.90;;;;;;4985622;28;20381;-74
2023/03/20 11:02:13;;;;;;;7.53;6.73;;;11.40;99.90;;;;;;4985647;28;20333;-74
2023/03/20 11:04:40;;;;;;;7.30;5.97;;;11.50;99.90;;;;;;4985339;28;20202;-74
2023/03/20 11:07:19;;;;;;;6.87;5.90;;;11.40;99.90;;;;;;4985053;28;20990;-74
2023/03/20 11:10:10;;;;;;;6.87;5.80;;;11.50;99.90;;;;;;4985078;28;20238;-74
2023/03/20 11:12:39;;;;;;;7.37;6.23;;;11.50;99.90;;;;;;5000302;28;20213;-74
2023/03/20 11:15:20;;;;;;;6.93;6.13;;;11.60;99.90;;;;;;5004729;28;20304;-74
2023/03/20 11:17:56;;;;;;;8.60;6.40;;;11.60;99.90;;;;;;5004873;28;20202;-74
2023/03/20 11:20:24;;;;;;;8.60;6.57;;;11.70;99.90;;;;;;5004872;28;20882;-74
2023/03/20 11:22:58;;;;;;;8.27;7.37;;;11.70;99.90;;;;;;5007288;28;20962;-73
2023/03/20 11:25:31;;;;;;;7.87;6.33;;;11.70;99.90;;;;;;5008570;28;20288;-74
2023/03/20 11:28:18;;;;;;;8.00;6.17;;;11.70;99.90;;;;;;5007902;28;20214;-74
2023/03/20 11:30:46;;;;;;;8.60;6.47;;;11.70;99.90;;;;;;5008101;28;20190;-74
2023/03/20 11:33:14;;;;;;;9.57;7.10;;;11.70;99.90;;;;;;5008107;28;20660;-74
2023/03/20 11:35:45;;;;;;;7.17;6.23;;;11.70;99.90;;;;;;5007821;28;20288;-74
2023/03/20 11:38:15;;;;;;;7.67;6.30;;;11.80;99.90;;;;;;5008014;28;20284;-74
2023/03/20 11:40:44;;;;;;;8.20;7.40;;;11.80;99.90;;;;;;5007808;28;20224;-74
2023/03/20 11:43:13;;;;;;;9.73;7.30;;;11.80;99.90;;;;;;5025656;28;20209;-74
2023/03/20 11:45:41;;;;;;;8.23;7.27;;;11.70;99.90;;;;;;5017395;28;20256;-72
2023/03/20 11:48:17;;;;;;;9.50;6.40;;;11.70;99.90;;;;;;5007683;28;20308;-72
2023/03/20 11:50:47;;;;;;;9.10;6.67;;;11.70;99.90;;;;;;5007287;28;20189;-72
2023/03/20 11:53:25;;;;;;;10.10;8.63;;;11.80;99.90;;;;;;5007602;28;20810;-73
2023/03/20 11:56:09;;;;;;;8.37;6.90;;;11.70;99.90;;;;;;5007619;28;20244;-72
2023/03/20 11:58:39;;;;;;;8.13;6.60;;;11.70;99.90;;;;;;5007708;28;20193;-72
2023/03/20 12:01:10;;;;;;;9.27;6.90;;;11.60;99.90;;;;;;5007759;28;20332;-73
2023/03/20 12:03:43;;;;;;;8.00;7.10;;;11.60;99.90;;;;;;5007608;28;20194;-72
2023/03/20 12:06:15;;;;;;;8.60;7.10;;;11.60;99.90;;;;;;5007396;28;20237;-72
2023/03/20 12:08:46;;;;;;;8.10;6.50;;;11.60;99.90;;;;;;5007191;28;20588;-72
2023/03/20 12:11:35;;;;;;;9.30;7.20;;;11.70;99.90;;;;;;5007030;28;20332;-74
2023/03/20 12:14:06;;;;;;;8.47;6.67;;;11.70;99.90;;;;;;5007518;28;20285;-72
2023/03/20 12:16:35;;;;;;;8.83;7.10;;;11.70;99.90;;;;;;5007642;28;20206;-73
2023/03/20 12:19:06;;;;;;;9.10;6.97;;;11.70;99.90;;;;;;5007370;28;20304;-73
2023/03/20 12:21:39;;;;;;;10.30;6.33;;;11.70;99.90;;;;;;5007458;28;20324;-73
2023/03/20 12:24:13;;;;;;;8.83;6.97;;;11.70;99.90;;;;;;5007021;28;20220;-73
2023/03/20 12:26:47;;;;;;;9.37;7.00;;;11.70;99.90;;;;;;5007088;28;20264;-73
2023/03/20 12:29:23;;;;;;;7.43;6.70;;;11.70;99.90;;;;;;5007419;28;20283;-74
2023/03/20 12:31:55;;;;;;;10.47;7.13;;;11.70;99.90;;;;;;5007159;28;20299;-73
2023/03/20 12:34:27;;;;;;;9.17;7.40;;;11.70;99.90;;;;;;5007089;28;20228;-72
2023/03/20 12:36:56;;;;;;;8.13;6.77;;;11.70;99.90;;;;;;5006789;28;20205;-72
2023/03/20 12:39:27;;;;;;;9.87;7.37;;;11.60;99.90;;;;;;5006831;28;20240;-72
2023/03/20 12:42:08;;;;;;;11.03;7.60;;;11.70;99.90;;;;;;5006452;28;20229;-72
2023/03/20 12:44:39;;;;;;;9.87;7.53;;;11.70;99.90;;;;;;5006742;28;20194;-73
2023/03/20 12:47:25;;;;;;;10.93;7.27;;;11.60;99.90;;;;;;5006794;28;20209;-72
2023/03/20 12:50:00;;;;;;;9.93;7.40;;;11.70;99.90;;;;;;5006108;28;20838;-73
2023/03/20 12:52:36;;;;;;;9.50;7.10;;;11.60;99.90;;;;;;5006949;28;20201;-72
2023/03/20 12:55:21;;;;;;;9.10;7.43;;;11.60;99.90;;;;;;5006800;28;20201;-72
2023/03/20 12:58:01;;;;;;;9.03;7.43;;;11.60;99.90;;;;;;5006890;28;20204;-72
2023/03/20 13:00:32;;;;;;;8.97;7.23;;;11.60;99.90;;;;;;5006722;28;20638;-72